Time;durP1;ratioP1;P1;durP2;ratioP2;P2;SDS_P1;SDS_P2;PMS_P1;PMS_P2;Temp;Humidity;BMP_temperature;BMP_pressure;BME280_temperature;BME280_humidity;BME280_pressure;Samples;Min_cycle;Max_cycle;Signal;HPM_P1;HPM_P2
2023/09/29 00:01:27;;;;;;;9.15;4.20;;;;;;;15.75;84.05;101671.69;7397411;19;19950;-65
2023/09/29 00:03:56;;;;;;;14.07;4.60;;;;;;;15.74;84.35;101664.59;7398127;19;19925;-65
2023/09/29 00:06:24;;;;;;;13.48;4.88;;;;;;;15.72;84.31;101669.38;7397169;19;20012;-65
2023/09/29 00:08:53;;;;;;;14.48;4.75;;;;;;;15.69;84.58;101651.59;7392815;19;19925;-64
2023/09/29 00:11:22;;;;;;;18.25;5.80;;;;;;;15.69;84.52;101651.59;7397072;19;19926;-65
2023/09/29 00:13:54;;;;;;;13.98;4.32;;;;;;;15.70;84.83;101664.13;7398820;19;19948;-64
2023/09/29 00:30:12;;;;;;;16.05;5.07;;;;;;;15.57;85.27;101633.25;7382178;19;19918;-65
2023/09/29 00:32:46;;;;;;;13.75;4.90;;;;;;;15.57;85.28;101635.97;7397364;19;19989;-65
2023/09/29 00:35:19;;;;;;;14.75;4.88;;;;;;;15.55;85.12;101648.88;7398423;19;19922;-64
2023/09/29 00:37:48;;;;;;;14.65;4.55;;;;;;;15.56;85.13;101653.28;7397001;19;19918;-65
2023/09/29 00:40:17;;;;;;;13.68;4.32;;;;;;;15.56;85.15;101658.72;7389441;19;19926;-65
2023/09/29 00:42:46;;;;;;;13.80;4.13;;;;;;;15.55;85.23;101648.88;7398599;19;19915;-64
2023/09/29 00:45:22;;;;;;;11.85;4.20;;;;;;;15.54;85.31;101647.19;7397660;19;19947;-65
2023/09/29 00:47:55;;;;;;;19.23;4.82;;;;;;;15.53;85.49;101653.69;7397792;19;19926;-65
2023/09/29 00:50:26;;;;;;;9.48;4.00;;;;;;;15.53;85.65;101642.81;7393566;19;19930;-65
2023/09/29 00:52:58;;;;;;;10.57;4.43;;;;;;;15.53;85.74;101640.97;7397304;19;20262;-65
2023/09/29 00:55:29;;;;;;;12.07;4.30;;;;;;;15.55;85.94;101638.03;7394913;19;19934;-66
2023/09/29 00:58:01;;;;;;;11.52;4.88;;;;;;;15.56;85.95;101639.72;7397293;19;19914;-65
2023/09/29 01:00:35;;;;;;;8.05;3.72;;;;;;;15.56;85.75;101637.84;7391114;19;19922;-65
2023/09/29 01:03:06;;;;;;;9.15;3.83;;;;;;;15.56;85.66;101634.28;7396020;19;19974;-65
2023/09/29 01:05:38;;;;;;;11.75;4.60;;;;;;;15.56;85.95;101631.56;7396701;19;20013;-65
2023/09/29 01:08:12;;;;;;;10.95;4.57;;;;;;;15.56;85.58;101639.72;7394229;19;19926;-64
2023/09/29 01:10:42;;;;;;;12.32;4.22;;;;;;;15.55;86.02;101622.56;7390262;19;19974;-65
2023/09/29 01:13:12;;;;;;;12.95;4.38;;;;;;;15.55;86.23;101628.00;7393893;19;19961;-65
2023/09/29 01:15:43;;;;;;;11.07;4.88;;;;;;;15.56;86.03;101618.00;7392784;19;20409;-65
2023/09/29 01:18:13;;;;;;;11.45;3.80;;;;;;;15.58;86.60;101621.34;7396380;19;19923;-65
2023/09/29 01:20:43;;;;;;;10.73;3.97;;;;;;;15.59;86.49;101610.28;7394727;19;19938;-65
2023/09/29 01:23:12;;;;;;;9.43;3.58;;;;;;;15.61;86.43;101610.97;7396483;19;19939;-65
2023/09/29 01:25:43;;;;;;;11.35;4.50;;;;;;;15.63;86.19;101613.47;7392518;19;19935;-64
2023/09/29 01:28:13;;;;;;;14.85;5.05;;;;;;;15.63;86.38;101622.47;7399435;19;19947;-65
2023/09/29 01:30:44;;;;;;;15.38;3.75;;;;;;;15.64;86.39;101620.59;7401945;19;19930;-65
2023/09/29 01:33:13;;;;;;;9.05;4.03;;;;;;;15.63;86.59;101617.03;7399024;19;19923;-65
2023/09/29 01:35:43;;;;;;;10.80;3.78;;;;;;;15.62;86.96;101620.75;7401947;19;20336;-64
2023/09/29 01:38:12;;;;;;;10.85;4.05;;;;;;;15.64;86.80;101609.72;7400946;19;19923;-64
2023/09/29 01:40:45;;;;;;;13.70;4.40;;;;;;;15.62;86.76;101609.09;7397897;19;20349;-65
2023/09/29 01:43:18;;;;;;;10.63;3.72;;;;;;;15.59;86.57;101602.16;7400284;19;19915;-65
2023/09/29 01:45:47;;;;;;;9.68;3.70;;;;;;;15.58;87.13;101613.19;7397761;19;19943;-65
2023/09/29 01:48:16;;;;;;;14.43;4.32;;;;;;;15.57;87.18;101615.09;7400253;19;19923;-65
2023/09/29 01:50:45;;;;;;;11.05;4.10;;;;;;;15.56;86.86;101609.84;7400145;19;20624;-65
2023/09/29 01:53:13;;;;;;;13.80;4.15;;;;;;;15.58;87.24;101616.75;7399139;19;20264;-65
2023/09/29 01:55:45;;;;;;;11.82;4.28;;;;;;;15.60;87.00;101619.28;7395100;19;19918;-65
2023/09/29 01:58:13;;;;;;;8.80;3.92;;;;;;;15.60;87.01;101606.56;7401658;19;20013;-64
2023/09/29 02:00:42;;;;;;;11.25;3.65;;;;;;;15.60;87.14;101597.56;7399433;19;19922;-65
2023/09/29 02:03:11;;;;;;;10.13;3.92;;;;;;;15.60;87.45;101600.28;7398301;19;19947;-64
2023/09/29 02:05:40;;;;;;;14.45;3.90;;;;;;;15.59;87.84;101604.88;7400151;19;19925;-64
2023/09/29 02:08:10;;;;;;;9.25;4.13;;;;;;;15.59;87.86;101601.31;7397531;19;19919;-65
2023/09/29 02:10:39;;;;;;;11.50;4.45;;;;;;;15.60;87.61;101597.56;7396554;19;19918;-65
2023/09/29 02:13:11;;;;;;;10.52;4.53;;;;;;;15.60;87.44;101587.53;7399758;19;20387;-65
2023/09/29 02:15:41;;;;;;;10.13;4.10;;;;;;;15.60;87.80;101581.25;7400649;19;19931;-64
2023/09/29 02:18:09;;;;;;;11.10;3.58;;;;;;;15.61;87.82;101588.38;7399240;19;19929;-64
2023/09/29 02:20:46;;;;;;;12.95;3.67;;;;;;;15.61;87.65;101586.50;7398585;19;19929;-65
2023/09/29 02:23:14;;;;;;;11.57;4.53;;;;;;;15.59;88.32;101580.41;7396157;19;19943;-65
2023/09/29 02:25:44;;;;;;;10.20;4.13;;;;;;;15.61;88.27;101586.50;7400596;19;19946;-64
2023/09/29 02:28:36;;;;;;;13.82;4.00;;;;;;;15.62;88.67;101579.22;7399291;19;19926;-64
2023/09/29 02:31:05;;;;;;;14.45;4.40;;;;;;;15.62;89.05;101580.03;7397233;19;20355;-64
2023/09/29 02:33:33;;;;;;;9.63;4.68;;;;;;;15.63;89.07;101565.41;7399285;19;19927;-65
2023/09/29 02:36:22;;;;;;;11.98;4.72;;;;;;;15.64;88.67;101567.09;7396180;19;19935;-65
2023/09/29 02:38:51;;;;;;;8.82;4.13;;;;;;;15.66;88.64;101575.06;7394125;19;19934;-65
2023/09/29 02:41:20;;;;;;;9.95;4.13;;;;;;;15.65;88.93;101573.38;7396687;19;19931;-65
2023/09/29 02:43:51;;;;;;;9.73;3.75;;;;;;;15.64;88.96;101567.09;7398784;19;19927;-65
2023/09/29 02:46:20;;;;;;;11.48;4.53;;;;;;;15.63;89.38;101559.97;7399417;19;19922;-65
2023/09/29 02:48:49;;;;;;;11.13;3.92;;;;;;;15.66;89.22;101556.88;7394271;19;20341;-64
2023/09/29 02:51:18;;;;;;;13.02;4.53;;;;;;;15.67;89.03;101561.28;7395812;19;19926;-65
2023/09/29 02:53:48;;;;;;;18.23;4.65;;;;;;;15.67;89.45;101561.28;7399648;19;20003;-65
2023/09/29 02:56:17;;;;;;;13.63;4.68;;;;;;;15.67;89.11;101565.88;7396867;19;19926;-65
2023/09/29 02:58:46;;;;;;;8.93;4.28;;;;;;;15.66;89.10;101558.78;7400065;19;19926;-65
2023/09/29 03:01:18;;;;;;;11.25;4.63;;;;;;;15.65;89.51;101566.06;7399402;19;19926;-64
2023/09/29 03:03:47;;;;;;;9.65;4.20;;;;;;;15.64;89.92;101558.13;7398144;19;19922;-65
2023/09/29 03:06:20;;;;;;;11.70;5.03;;;;;;;15.66;89.52;101547.91;7396718;19;19958;-64
2023/09/29 03:09:13;;;;;;;10.85;4.90;;;;;;;15.66;89.54;101545.19;7392373;19;20399;-65
2023/09/29 03:11:43;;;;;;;12.82;5.00;;;;;;;15.66;89.74;101543.28;7397820;19;19918;-65
2023/09/29 03:14:12;;;;;;;13.15;4.38;;;;;;;15.66;89.71;101542.47;7399599;19;19994;-64
2023/09/29 03:16:43;;;;;;;15.02;5.63;;;;;;;15.66;89.84;101534.34;7400074;19;19929;-65
2023/09/29 03:19:12;;;;;;;10.23;4.78;;;;;;;15.67;89.42;101530.56;7397808;19;19918;-65
2023/09/29 03:21:42;;;;;;;12.68;5.05;;;;;;;15.67;90.09;101528.69;7394849;19;20533;-64
2023/09/29 03:24:11;;;;;;;11.98;4.38;;;;;;;15.67;90.08;101515.09;7397273;19;19919;-65
2023/09/29 03:26:39;;;;;;;12.15;5.15;;;;;;;15.69;89.76;101510.31;7399091;19;20345;-65
2023/09/29 03:29:08;;;;;;;12.63;5.63;;;;;;;15.68;89.83;101516.78;7398851;19;19922;-64
2023/09/29 03:31:37;;;;;;;12.35;5.03;;;;;;;15.67;89.74;101517.81;7395352;19;19926;-65
2023/09/29 03:34:09;;;;;;;11.85;5.88;;;;;;;15.65;90.59;101516.34;7400178;19;19919;-64
2023/09/29 03:36:37;;;;;;;;;;;;;;;15.49;91.89;101508.44;7399441;19;19960;-64
2023/09/29 03:39:07;;;;;;;13.95;5.78;;;;;;;15.61;90.23;101509.63;7396231;19;19926;-65
2023/09/29 03:41:36;;;;;;;19.25;6.68;;;;;;;15.62;90.33;101492.28;7397737;19;19951;-65
2023/09/29 03:44:04;;;;;;;11.55;6.35;;;;;;;15.63;90.47;101499.38;7397615;19;19947;-65
2023/09/29 03:46:33;;;;;;;14.73;5.15;;;;;;;15.63;90.20;101488.53;7397349;19;19923;-65
2023/09/29 03:49:02;;;;;;;11.30;5.50;;;;;;;15.63;90.40;101477.66;7397533;19;19930;-64
2023/09/29 03:51:33;;;;;;;12.40;5.88;;;;;;;15.64;90.39;101484.78;7396850;19;19947;-65
2023/09/29 03:54:02;;;;;;;13.90;5.78;;;;;;;15.64;90.56;101482.91;7396828;19;19922;-65
2023/09/29 03:56:34;;;;;;;16.00;6.63;;;;;;;15.65;90.61;101481.03;7398156;19;19920;-65
2023/09/29 03:59:03;;;;;;;11.88;6.25;;;;;;;15.64;90.78;101482.06;7398764;19;19923;-65
2023/09/29 04:01:32;;;;;;;13.02;5.75;;;;;;;15.64;90.75;101474.75;7398294;19;19926;-66
2023/09/29 04:04:01;;;;;;;14.35;5.93;;;;;;;15.67;91.02;101478.94;7398491;19;20259;-64
2023/09/29 04:06:29;;;;;;;16.65;6.82;;;;;;;15.69;90.99;101476.88;7398354;19;20394;-65
2023/09/29 04:09:08;;;;;;;10.55;5.65;;;;;;;15.69;90.74;101471.47;7391257;19;19926;-65
2023/09/29 04:11:40;;;;;;;15.80;6.20;;;;;;;15.68;90.71;101461.63;7395470;19;19990;-65
2023/09/29 04:14:08;;;;;;;15.23;7.22;;;;;;;15.70;90.24;101467.72;7397938;19;19919;-65
2023/09/29 04:16:37;;;;;;;17.80;6.60;;;;;;;15.69;90.65;101475.00;7397591;19;20246;-65
2023/09/29 04:19:05;;;;;;;16.00;6.82;;;;;;;15.72;90.41;101466.47;7396984;19;19954;-64
2023/09/29 04:21:34;;;;;;;17.85;7.97;;;;;;;15.74;90.60;101461.69;7395802;19;19919;-64
2023/09/29 04:24:03;;;;;;;16.13;6.70;;;;;;;15.77;90.10;101465.88;7393798;19;19926;-64
2023/09/29 04:26:35;;;;;;;11.98;6.95;;;;;;;15.76;90.69;101456.88;7397877;19;19941;-64
2023/09/29 04:29:04;;;;;;;15.15;7.13;;;;;;;15.77;90.23;101457.72;7398498;19;19927;-64
2023/09/29 04:31:32;;;;;;;18.38;6.97;;;;;;;15.77;90.52;101455.84;7396563;19;19947;-65
2023/09/29 04:34:01;;;;;;;12.57;7.38;;;;;;;15.77;90.79;101446.84;7394940;19;19922;-64
2023/09/29 04:36:29;;;;;;;16.77;7.03;;;;;;;15.78;90.66;101452.09;7396121;19;19923;-65
2023/09/29 04:38:58;;;;;;;16.52;7.30;;;;;;;15.78;90.62;101448.53;7394816;19;19918;-64
2023/09/29 04:41:27;;;;;;;18.45;6.75;;;;;;;15.77;90.50;101450.41;7395583;19;19986;-65
2023/09/29 04:43:59;;;;;;;16.48;7.43;;;;;;;15.77;90.98;101458.56;7396035;19;19926;-65
2023/09/29 04:46:28;;;;;;;14.15;7.28;;;;;;;15.77;91.05;101441.44;7396332;19;19926;-64
2023/09/29 04:49:17;;;;;;;14.45;6.75;;;;;;;15.78;91.22;101437.69;7392988;19;20324;-64
2023/09/29 04:51:46;;;;;;;17.63;7.50;;;;;;;15.79;91.64;101434.75;7395786;19;20324;-65
2023/09/29 04:54:14;;;;;;;15.35;7.60;;;;;;;15.82;91.28;101439.81;7394486;19;19932;-65
2023/09/29 04:56:43;;;;;;;17.10;7.53;;;;;;;15.83;91.09;101424.34;7396880;19;19926;-64
2023/09/29 04:59:14;;;;;;;14.85;8.50;;;;;;;15.84;91.47;101437.72;7390655;19;19925;-65
2023/09/29 05:01:43;;;;;;;15.20;8.07;;;;;;;15.85;91.25;101433.13;7389298;19;19918;-64
2023/09/29 05:04:12;;;;;;;17.23;8.25;;;;;;;15.84;91.58;101436.88;7393040;19;20595;-64
2023/09/29 05:06:40;;;;;;;16.75;7.90;;;;;;;15.84;91.44;101436.88;7396822;19;20261;-65
2023/09/29 05:09:11;;;;;;;18.42;8.10;;;;;;;15.83;91.44;101441.47;7389783;19;19934;-64
2023/09/29 05:11:40;;;;;;;17.83;8.93;;;;;;;15.82;91.59;101442.53;7396162;19;19941;-65
2023/09/29 05:14:08;;;;;;;15.15;7.70;;;;;;;15.82;91.78;101430.81;7395365;19;19934;-65
2023/09/29 05:16:43;;;;;;;16.17;9.13;;;;;;;15.82;91.93;101437.09;7392502;19;19926;-65
2023/09/29 05:19:12;;;;;;;13.35;7.78;;;;;;;15.82;92.01;101428.94;7393782;19;20368;-65
2023/09/29 05:21:40;;;;;;;16.95;7.47;;;;;;;15.84;92.14;101431.44;7393167;19;19933;-65
2023/09/29 05:24:11;;;;;;;14.07;8.20;;;;;;;15.85;91.72;101439.41;7396232;19;19923;-65
2023/09/29 05:26:39;;;;;;;16.20;8.43;;;;;;;15.86;91.84;101435.66;7394115;19;19986;-65
2023/09/29 05:29:08;;;;;;;16.88;8.35;;;;;;;15.87;92.40;101442.78;7395499;19;20353;-65
2023/09/29 05:31:36;;;;;;;22.55;8.95;;;;;;;15.87;91.99;101434.63;7393447;19;20018;-65
2023/09/29 05:34:08;;;;;;;13.88;7.55;;;;;;;15.88;92.47;101446.31;7392403;19;20396;-64
2023/09/29 05:36:36;;;;;;;19.08;8.27;;;;;;;15.88;92.25;101449.88;7393947;19;20377;-65
2023/09/29 05:39:06;;;;;;;17.52;8.60;;;;;;;15.88;92.04;101452.59;7391713;19;19922;-65
2023/09/29 05:41:34;;;;;;;15.95;7.35;;;;;;;15.91;92.58;101440.50;7393368;19;19937;-65
2023/09/29 05:44:03;;;;;;;14.35;8.18;;;;;;;15.92;92.23;101434.00;7393976;19;19934;-66
2023/09/29 05:46:32;;;;;;;16.35;7.60;;;;;;;15.92;92.29;101439.44;7393296;19;19961;-65
2023/09/29 05:49:00;;;;;;;16.05;7.93;;;;;;;15.94;92.67;101434.66;7392744;19;19926;-64
2023/09/29 05:51:32;;;;;;;14.48;7.35;;;;;;;15.94;92.87;101436.53;7392657;19;19986;-65
2023/09/29 05:54:02;;;;;;;15.48;7.05;;;;;;;15.94;92.67;101431.94;7383137;19;19930;-65
2023/09/29 05:56:31;;;;;;;15.95;7.75;;;;;;;15.97;92.20;101433.41;7386265;19;19923;-65
2023/09/29 05:59:00;;;;;;;15.85;7.90;;;;;;;15.98;92.78;101427.78;7386315;19;19933;-65
2023/09/29 06:01:28;;;;;;;14.27;7.07;;;;;;;16.00;92.96;101431.16;7391972;19;19918;-65
2023/09/29 06:03:58;;;;;;;13.23;6.38;;;;;;;16.02;92.96;101422.78;7393352;19;20337;-65
2023/09/29 06:06:49;;;;;;;15.85;7.05;;;;;;;16.04;92.52;101418.00;7392120;19;20257;-64
2023/09/29 06:09:19;;;;;;;12.88;6.75;;;;;;;16.08;92.82;101422.00;7391933;19;19914;-65
2023/09/29 06:11:49;;;;;;;19.15;7.20;;;;;;;16.10;92.83;101422.63;7391594;19;19946;-65
2023/09/29 06:14:37;;;;;;;15.02;7.90;;;;;;;16.11;92.44;101419.72;7396316;19;20403;-65
2023/09/29 06:17:06;;;;;;;12.00;7.60;;;;;;;16.12;92.41;101417.84;7399452;19;20388;-65
2023/09/29 06:19:34;;;;;;;14.38;8.52;;;;;;;16.12;92.52;101410.53;7401385;19;20253;-65
2023/09/29 06:22:06;;;;;;;15.82;7.15;;;;;;;16.12;92.90;101394.22;7398029;19;19947;-65
2023/09/29 06:24:35;;;;;;;12.70;6.97;;;;;;;16.14;93.38;101397.56;7398298;19;19919;-65
2023/09/29 06:27:24;;;;;;;;;;;;;;;16.01;94.55;101408.34;7401766;19;20284;-65
2023/09/29 06:29:52;;;;;;;14.50;7.00;;;;;;;16.13;93.66;101403.22;7395801;19;20361;-65
2023/09/29 06:32:21;;;;;;;13.27;7.82;;;;;;;16.16;93.35;101414.53;7397560;19;19922;-65
2023/09/29 06:34:50;;;;;;;15.25;7.45;;;;;;;16.17;93.52;101408.06;7400127;19;19919;-64
2023/09/29 06:37:21;;;;;;;18.80;7.32;;;;;;;16.20;93.40;101410.38;7401263;19;19918;-64
2023/09/29 06:39:50;;;;;;;14.40;7.60;;;;;;;16.22;93.04;101404.75;7400461;19;19943;-65
2023/09/29 06:42:18;;;;;;;12.85;7.03;;;;;;;16.25;92.90;101402.44;7400948;19;19919;-65
2023/09/29 06:44:47;;;;;;;9.82;6.75;;;;;;;16.27;92.95;101404.94;7400539;19;19922;-64
2023/09/29 06:47:15;;;;;;;15.30;6.70;;;;;;;16.28;93.47;101406.63;7398972;19;19926;-65
2023/09/29 06:49:44;;;;;;;13.18;6.07;;;;;;;16.29;93.05;101409.16;7400360;19;19918;-64
2023/09/29 06:52:14;;;;;;;10.73;6.32;;;;;;;16.30;92.70;101410.84;7400041;19;19935;-64
2023/09/29 06:54:45;;;;;;;14.65;6.35;;;;;;;16.31;93.14;101408.94;7400912;19;20367;-65
2023/09/29 06:57:13;;;;;;;12.00;6.50;;;;;;;16.29;93.19;101408.31;7397936;19;19959;-64
2023/09/29 06:59:42;;;;;;;11.98;6.53;;;;;;;16.30;92.69;101413.56;7399311;19;19955;-64
2023/09/29 07:02:31;;;;;;;15.05;6.22;;;;;;;16.30;93.06;101407.28;7397271;19;19964;-65
2023/09/29 07:04:59;;;;;;;12.77;5.60;;;;;;;16.32;92.86;101403.31;7399953;19;19918;-64
2023/09/29 07:07:28;;;;;;;13.40;6.35;;;;;;;16.32;93.00;101397.88;7399518;19;20423;-65
2023/09/29 07:09:59;;;;;;;10.43;6.18;;;;;;;16.34;92.54;101403.13;7381926;19;19934;-64
2023/09/29 07:12:28;;;;;;;12.82;6.28;;;;;;;16.35;92.76;101400.19;7380812;19;19951;-65
2023/09/29 07:14:56;;;;;;;13.20;5.65;;;;;;;16.40;92.66;101396.03;7380463;19;19926;-65
2023/09/29 07:17:25;;;;;;;9.55;5.70;;;;;;;16.44;92.30;101403.56;7378262;19;19925;-65
2023/09/29 07:19:54;;;;;;;9.55;5.40;;;;;;;16.48;92.48;101401.31;7381077;19;19927;-65
2023/09/29 07:22:22;;;;;;;9.95;5.88;;;;;;;16.53;92.28;101401.50;7378689;19;19919;-65
2023/09/29 07:24:57;;;;;;;13.10;5.13;;;;;;;16.55;91.98;101399.44;7390339;19;19929;-65
2023/09/29 07:27:29;;;;;;;9.55;5.63;;;;;;;16.60;91.93;101386.94;7387096;19;19922;-65
2023/09/29 07:29:58;;;;;;;11.32;6.18;;;;;;;16.66;91.84;101397.00;7394775;19;19938;-65
2023/09/29 07:32:27;;;;;;;12.02;5.20;;;;;;;16.74;91.47;101395.97;7398434;19;19943;-65
2023/09/29 07:34:56;;;;;;;12.18;5.38;;;;;;;16.79;91.39;101401.66;7398346;19;19943;-65
2023/09/29 07:37:24;;;;;;;7.63;4.82;;;;;;;16.85;91.33;101395.41;7399954;19;19926;-66
2023/09/29 07:39:53;;;;;;;13.95;5.70;;;;;;;16.91;91.11;101394.59;7398139;19;19961;-64
2023/09/29 07:42:21;;;;;;;9.88;4.50;;;;;;;16.98;90.82;101394.59;7393535;19;19932;-65
2023/09/29 07:44:53;;;;;;;7.03;4.07;;;;;;;17.05;90.23;101401.72;7395716;19;19918;-65
2023/09/29 07:47:21;;;;;;;9.27;4.28;;;;;;;17.13;89.98;101401.50;7393820;19;19926;-66
2023/09/29 07:49:50;;;;;;;7.47;3.70;;;;;;;17.21;89.73;101405.94;7391469;19;19922;-65
2023/09/29 07:52:25;;;;;;;8.65;4.30;;;;;;;17.28;89.08;101412.22;7397364;19;19922;-64
2023/09/29 07:54:54;;;;;;;6.15;3.70;;;;;;;17.36;88.93;101408.47;7396327;19;20383;-65
2023/09/29 07:57:22;;;;;;;11.10;3.95;;;;;;;17.42;88.85;101416.66;7395019;19;19918;-65
2023/09/29 07:59:53;;;;;;;8.57;4.20;;;;;;;17.49;88.80;101424.81;7389809;19;20368;-65
2023/09/29 08:02:22;;;;;;;9.60;3.45;;;;;;;17.58;88.22;101416.25;7389641;19;19919;-65
2023/09/29 08:04:51;;;;;;;7.97;3.47;;;;;;;17.68;87.64;101415.84;7390933;19;19955;-64
2023/09/29 08:07:27;;;;;;;7.55;3.47;;;;;;;17.74;87.59;101409.53;7385661;19;19928;-65
2023/09/29 08:09:56;;;;;;;8.45;3.60;;;;;;;17.82;87.52;101417.50;7396220;19;20013;-64
2023/09/29 08:12:25;;;;;;;7.78;3.67;;;;;;;17.85;87.16;101416.25;7398815;19;19946;-64
2023/09/29 08:14:56;;;;;;;6.65;3.75;;;;;;;17.88;87.21;101413.09;7394256;19;19954;-64
2023/09/29 08:17:25;;;;;;;6.25;3.40;;;;;;;17.91;87.15;101413.50;7391671;19;20304;-65
2023/09/29 08:19:54;;;;;;;4.38;2.80;;;;;;;17.91;87.30;101405.31;7393349;19;19923;-64
2023/09/29 08:22:23;;;;;;;9.02;3.17;;;;;;;17.92;87.19;101420.63;7392880;19;20366;-64
2023/09/29 08:25:12;;;;;;;8.65;3.22;;;;;;;17.95;87.02;101417.47;7390316;19;19957;-64
2023/09/29 08:27:42;;;;;;;3.72;2.42;;;;;;;18.05;86.56;101408.88;7389240;19;19914;-65
2023/09/29 08:30:14;;;;;;;6.88;3.03;;;;;;;18.13;86.35;101414.94;7395939;19;19934;-65
2023/09/29 08:32:43;;;;;;;;;;;;;;;18.11;86.33;101416.22;7397740;19;19928;-65
2023/09/29 08:35:13;;;;;;;5.97;3.10;;;;;;;18.25;85.96;101420.56;7392152;19;19922;-64
2023/09/29 08:37:41;;;;;;;4.20;2.95;;;;;;;18.30;85.80;101414.47;7382258;19;19922;-63
2023/09/29 08:40:12;;;;;;;6.60;2.80;;;;;;;18.34;85.61;101423.91;7391285;19;19982;-62
2023/09/29 08:42:44;;;;;;;7.45;3.10;;;;;;;18.40;85.61;101433.97;7397467;19;20252;-62
2023/09/29 08:45:17;;;;;;;7.10;2.88;;;;;;;18.44;85.31;101416.94;7393991;19;19994;-63
2023/09/29 08:47:52;;;;;;;9.20;3.08;;;;;;;18.47;85.41;101419.25;7395555;19;19922;-63
2023/09/29 08:50:20;;;;;;;5.22;3.17;;;;;;;18.51;85.19;101417.75;7391188;19;19922;-64
2023/09/29 08:52:51;;;;;;;5.93;3.10;;;;;;;18.56;85.01;101420.72;7378586;19;19930;-62
2023/09/29 08:55:20;;;;;;;7.18;3.00;;;;;;;18.57;84.95;101416.09;7360965;19;20004;-61
2023/09/29 08:57:48;;;;;;;4.80;2.97;;;;;;;18.59;85.44;101420.25;7392436;19;19922;-61
2023/09/29 09:00:23;;;;;;;5.70;2.70;;;;;;;18.62;85.36;101407.25;7394677;19;19951;-62
2023/09/29 09:03:11;;;;;;;7.50;2.42;;;;;;;18.71;85.00;101423.19;7392551;19;19941;-61
2023/09/29 09:05:40;;;;;;;5.07;2.80;;;;;;;18.76;85.13;101412.44;7395986;19;19928;-62
2023/09/29 09:08:29;;;;;;;8.25;4.13;;;;;;;18.85;84.96;101421.22;7388084;19;19930;-62
2023/09/29 09:11:02;;;;;;;4.18;2.35;;;;;;;18.92;84.45;101414.66;7389923;19;19926;-64
2023/09/29 09:13:31;;;;;;;5.75;3.03;;;;;;;19.00;84.27;101416.28;7395728;19;19941;-62
2023/09/29 09:16:02;;;;;;;7.63;3.03;;;;;;;19.10;84.02;101418.56;7392990;19;19930;-62
2023/09/29 09:18:31;;;;;;;;;;;;;;;19.09;84.18;101414.16;7396728;19;19955;-62
2023/09/29 09:20:59;;;;;;;5.90;2.85;;;;;;;19.27;83.99;101406.03;7395728;19;19929;-62
2023/09/29 09:23:39;;;;;;;6.68;2.90;;;;;;;19.38;84.03;101410.78;7392910;19;19918;-62
2023/09/29 09:26:16;;;;;;;6.47;3.63;;;;;;;19.49;83.63;101412.84;7393694;19;19937;-63
2023/09/29 09:28:45;;;;;;;6.35;2.58;;;;;;;19.59;83.30;101426.84;7392356;19;19944;-63
2023/09/29 09:31:16;;;;;;;9.32;4.72;;;;;;;19.70;82.80;101417.09;7396345;19;19947;-63
2023/09/29 09:34:05;;;;;;;12.20;3.50;;;;;;;19.81;82.95;101419.06;7394229;19;19929;-64
2023/09/29 09:36:34;;;;;;;7.60;3.15;;;;;;;19.92;82.64;101419.19;7371871;19;20626;-64
2023/09/29 09:39:03;;;;;;;4.03;2.28;;;;;;;20.02;81.45;101437.81;7363572;19;19923;-64
2023/09/29 09:41:32;;;;;;;6.07;2.50;;;;;;;20.09;81.31;101440.50;7366981;19;19928;-63
2023/09/29 09:44:21;;;;;;;6.78;2.70;;;;;;;20.23;80.73;101423.72;7377578;19;20263;-63
2023/09/29 09:47:00;;;;;;;6.07;2.60;;;;;;;20.36;80.26;101422.78;7366442;19;20030;-63
2023/09/29 09:49:38;;;;;;;7.25;2.80;;;;;;;20.44;79.84;101432.56;7371245;19;21325;-63
2023/09/29 09:52:12;;;;;;;4.40;2.63;;;;;;;20.45;79.66;101426.84;7373745;19;20396;-66
2023/09/29 09:54:46;;;;;;;6.10;2.63;;;;;;;20.53;79.20;101432.03;7372418;19;19930;-66
2023/09/29 09:57:20;;;;;;;7.00;2.53;;;;;;;20.59;79.12;101433.00;7376966;19;19922;-67
2023/09/29 09:59:49;;;;;;;6.40;2.13;;;;;;;20.67;79.44;101428.06;7380169;19;19943;-67
2023/09/29 10:02:22;;;;;;;4.32;2.50;;;;;;;20.69;78.83;101431.41;7371160;19;20555;-68
2023/09/29 10:04:53;;;;;;;3.08;1.90;;;;;;;20.74;78.72;101425.25;7364283;19;19923;-67
2023/09/29 10:07:23;;;;;;;7.45;2.20;;;;;;;20.72;78.64;101421.88;7386841;19;19922;-68
2023/09/29 10:09:51;;;;;;;4.45;2.30;;;;;;;20.76;78.01;101414.88;7367040;19;19918;-68
2023/09/29 10:12:27;;;;;;;6.18;2.38;;;;;;;20.80;77.45;101408.72;7367557;19;19930;-68
2023/09/29 10:14:56;;;;;;;2.88;2.00;;;;;;;20.91;77.66;101414.50;7374031;19;19963;-68
2023/09/29 10:17:39;;;;;;;4.70;2.03;;;;;;;20.89;77.07;101411.13;7374005;19;20550;-68
2023/09/29 10:20:29;;;;;;;11.77;3.10;;;;;;;20.91;77.42;101411.75;7358927;19;19930;-68
2023/09/29 10:23:06;;;;;;;5.10;2.10;;;;;;;20.94;76.69;101411.28;7365298;19;19926;-68
2023/09/29 10:25:35;;;;;;;2.83;2.00;;;;;;;20.95;77.20;101415.69;7367546;19;19922;-68
2023/09/29 10:28:07;;;;;;;6.63;2.90;;;;;;;21.04;76.86;101403.34;7385282;19;19915;-68
2023/09/29 10:30:38;;;;;;;4.63;2.47;;;;;;;21.23;77.11;101405.81;7375956;19;19923;-67
2023/09/29 10:33:12;;;;;;;8.02;3.70;;;;;;;21.36;76.54;101406.69;7371331;19;19922;-67
2023/09/29 10:35:48;;;;;;;6.95;2.45;;;;;;;21.38;75.85;101412.75;7380252;19;19947;-67
2023/09/29 10:38:37;;;;;;;9.90;3.35;;;;;;;21.30;76.51;101411.19;7366637;19;19978;-68
2023/09/29 10:41:06;;;;;;;6.13;2.33;;;;;;;21.22;76.64;101417.03;7368979;19;19946;-68
2023/09/29 10:43:36;;;;;;;7.93;2.65;;;;;;;21.21;76.76;101410.69;7372014;19;19918;-67
2023/09/29 10:46:09;;;;;;;3.95;2.85;;;;;;;21.18;76.86;101415.81;7371886;19;19990;-67
2023/09/29 10:48:49;;;;;;;5.35;2.95;;;;;;;21.13;76.95;101412.94;7370226;19;19914;-64
2023/09/29 10:51:24;;;;;;;6.03;3.92;;;;;;;21.12;77.14;101417.59;7368296;19;19923;-64
2023/09/29 10:53:54;;;;;;;5.10;2.70;;;;;;;21.12;77.67;101423.06;7380363;19;19927;-65
2023/09/29 10:56:27;;;;;;;5.15;2.40;;;;;;;21.02;77.87;101421.91;7384448;19;20344;-64
2023/09/29 10:58:58;;;;;;;4.93;2.20;;;;;;;20.94;78.13;101422.22;7385945;19;19922;-64
2023/09/29 11:01:32;;;;;;;3.30;2.60;;;;;;;20.84;78.26;101429.09;7380982;19;20382;-64
2023/09/29 11:04:05;;;;;;;9.52;3.08;;;;;;;20.75;78.39;101426.94;7393860;19;20342;-64
2023/09/29 11:06:42;;;;;;;4.88;2.28;;;;;;;20.61;77.94;101429.00;7390685;19;19923;-64
2023/09/29 11:09:20;;;;;;;5.80;2.60;;;;;;;20.57;78.62;101425.03;7390466;19;19922;-64
2023/09/29 11:11:48;;;;;;;9.05;4.28;;;;;;;20.56;79.20;101431.56;7388099;19;19926;-64
2023/09/29 11:14:17;;;;;;;5.35;3.90;;;;;;;20.53;78.92;101426.56;7394697;19;19944;-65
2023/09/29 11:16:46;;;;;;;8.10;3.22;;;;;;;20.49;79.01;101432.72;7394541;19;19954;-64
2023/09/29 11:19:17;;;;;;;5.50;2.72;;;;;;;20.47;79.25;101430.22;7391044;19;19938;-63
2023/09/29 11:21:45;;;;;;;8.13;2.55;;;;;;;20.48;79.47;101447.47;7391207;19;19949;-62
2023/09/29 11:24:18;;;;;;;6.95;3.10;;;;;;;20.45;79.95;101432.31;7394307;19;19926;-62
2023/09/29 11:26:51;;;;;;;7.88;2.60;;;;;;;20.45;79.90;101435.06;7389482;19;19923;-62
2023/09/29 11:29:23;;;;;;;2.97;2.22;;;;;;;20.44;79.53;101446.25;7387353;19;19925;-62
2023/09/29 11:31:53;;;;;;;7.95;3.83;;;;;;;20.49;79.68;101436.31;7388404;19;19959;-62
2023/09/29 11:34:29;;;;;;;5.80;2.60;;;;;;;20.51;79.99;101441.53;7393330;19;20330;-62
2023/09/29 11:36:58;;;;;;;8.75;3.95;;;;;;;20.46;79.89;101439.47;7395381;19;20638;-62
2023/09/29 11:39:28;;;;;;;4.75;2.70;;;;;;;20.41;80.43;101444.78;7384039;19;19930;-62
2023/09/29 11:41:57;;;;;;;4.60;2.55;;;;;;;20.34;80.82;101450.34;7385306;19;19986;-62
2023/09/29 11:44:46;;;;;;;7.70;3.20;;;;;;;20.24;82.71;101451.91;7390697;19;20021;-62
2023/09/29 11:47:15;;;;;;;5.85;2.42;;;;;;;20.12;84.01;101454.56;7392828;19;19974;-62
2023/09/29 11:49:46;;;;;;;5.55;2.90;;;;;;;20.01;84.69;101452.56;7395342;19;19932;-62
2023/09/29 11:52:14;;;;;;;4.80;3.58;;;;;;;19.93;84.58;101461.88;7395570;19;20537;-62
2023/09/29 11:54:44;;;;;;;8.05;3.53;;;;;;;19.92;85.73;101464.84;7387639;19;20284;-62